createdAt,value
2018-02-07T00:00:42.555Z,84.63
2018-02-07T00:01:42.505Z,84.63
2018-02-07T00:02:42.456Z,84.44
2018-02-07T00:03:42.406Z,84.53
2018-02-07T00:04:42.363Z,84.16
2018-02-07T00:05:42.305Z,84.44
2018-02-07T00:06:42.259Z,84.53
2018-02-07T00:07:42.206Z,84.16
2018-02-07T00:08:42.158Z,84.91
2018-02-07T00:09:42.110Z,84.72
2018-02-07T00:10:42.057Z,84.81
2018-02-07T00:11:42.008Z,84.25
2018-02-07T00:12:41.958Z,84.34
2018-02-07T00:13:41.906Z,84.06
2018-02-07T00:14:41.856Z,84.25
2018-02-07T00:15:41.809Z,83.97
2018-02-07T00:16:41.759Z,84.25
2018-02-07T00:17:41.725Z,84.34
2018-02-07T00:18:41.672Z,84.06
2018-02-07T00:19:41.623Z,84.16
2018-02-07T00:20:41.557Z,84.44
2018-02-07T00:21:41.509Z,84.63
2018-02-07T00:22:41.459Z,84.53
2018-02-07T00:23:41.407Z,84.63
2018-02-07T00:24:41.357Z,84.16
2018-02-07T00:25:41.313Z,84.06
2018-02-07T00:26:41.261Z,84.25
2018-02-07T00:27:41.208Z,84.25
2018-02-07T00:28:41.162Z,84.25
2018-02-07T00:29:41.106Z,84.44
2018-02-07T00:30:41.058Z,83.97
2018-02-07T00:31:41.008Z,84.63
2018-02-07T00:32:40.961Z,84.53
2018-02-07T00:33:40.913Z,84.63
2018-02-07T00:34:40.857Z,85.00
2018-02-07T00:35:40.811Z,84.68
2018-02-07T00:36:40.760Z,84.63
2018-02-07T00:37:40.706Z,85.05
2018-02-07T00:38:45.659Z,84.77
2018-02-07T00:39:40.608Z,85.24
2018-02-07T00:40:40.557Z,84.96
2018-02-07T00:41:40.508Z,84.68
2018-02-07T00:42:40.459Z,84.39
2018-02-07T00:43:40.410Z,84.68
2018-02-07T00:44:40.356Z,84.91
2018-02-07T00:45:40.305Z,85.15
2018-02-07T00:46:40.256Z,84.96
2018-02-07T00:47:40.206Z,84.96
2018-02-07T00:48:40.160Z,85.38
2018-02-07T00:49:40.105Z,85.05
2018-02-07T00:50:40.057Z,84.30
2018-02-07T00:51:40.008Z,84.11
2018-02-07T00:52:39.955Z,84.49
2018-02-07T00:53:39.905Z,84.86
2018-02-07T00:54:39.854Z,84.86
2018-02-07T00:55:39.805Z,84.58
2018-02-07T00:56:39.755Z,84.77
2018-02-07T00:57:39.705Z,84.68
2018-02-07T00:58:39.658Z,85.15
2018-02-07T00:59:39.609Z,84.49
2018-02-07T01:00:39.561Z,84.86
2018-02-07T01:01:39.503Z,85.05
2018-02-07T01:02:39.455Z,85.15
2018-02-07T01:03:39.405Z,84.96
2018-02-07T01:04:39.359Z,84.96
2018-02-07T01:05:39.305Z,85.43
2018-02-07T01:06:39.257Z,85.34
2018-02-07T01:07:39.204Z,85.34
2018-02-07T01:08:39.154Z,85.43
2018-02-07T01:09:39.107Z,84.77
2018-02-07T01:10:39.053Z,85.62
2018-02-07T01:11:39.003Z,85.53
2018-02-07T01:12:38.952Z,85.53
2018-02-07T01:13:38.903Z,85.24
2018-02-07T01:14:38.851Z,85.24
2018-02-07T01:15:38.808Z,86.00
2018-02-07T01:16:38.751Z,85.91
2018-02-07T01:17:38.702Z,86.10
2018-02-07T01:18:38.656Z,86.00
2018-02-07T01:19:38.601Z,85.91
2018-02-07T01:20:38.550Z,86.00
2018-02-07T01:21:38.502Z,85.72
2018-02-07T01:22:38.447Z,86.38
2018-02-07T01:23:38.403Z,86.10
2018-02-07T01:24:38.351Z,86.10
2018-02-07T01:25:38.297Z,86.85
2018-02-07T01:26:38.248Z,86.38
2018-02-07T01:27:38.197Z,86.57
2018-02-07T01:28:38.147Z,86.47
2018-02-07T01:29:38.096Z,86.66
2018-02-07T01:30:38.046Z,86.76
2018-02-07T01:31:37.999Z,86.94
2018-02-07T01:32:37.951Z,86.76
2018-02-07T01:33:37.894Z,87.04
2018-02-07T01:34:37.847Z,87.04
2018-02-07T01:35:37.793Z,87.13
2018-02-07T01:36:37.744Z,87.13
2018-02-07T01:37:37.693Z,88.46
2018-02-07T01:38:37.645Z,88.65
2018-02-07T01:39:37.594Z,88.27
2018-02-07T01:40:37.542Z,87.70
2018-02-07T01:41:37.494Z,87.51
2018-02-07T01:42:37.442Z,87.32
2018-02-07T01:43:37.390Z,87.04
2018-02-07T01:44:37.341Z,87.13
2018-02-07T01:45:37.294Z,87.04
2018-02-07T01:46:37.238Z,87.42
2018-02-07T01:47:37.189Z,87.13
2018-02-07T01:48:37.145Z,86.94
2018-02-07T01:49:37.093Z,87.13
2018-02-07T01:50:37.039Z,86.94
2018-02-07T01:51:36.988Z,87.13
2018-02-07T01:52:36.937Z,86.76
2018-02-07T01:53:36.888Z,87.70
2018-02-07T01:54:36.840Z,88.46
2018-02-07T01:55:36.786Z,88.55
2018-02-07T01:56:36.733Z,88.65
2018-02-07T01:57:36.683Z,88.36
2018-02-07T01:58:36.637Z,87.61
2018-02-07T01:59:36.584Z,87.51
2018-02-07T02:00:36.537Z,86.94
2018-02-07T02:01:36.482Z,87.32
2018-02-07T02:02:36.435Z,86.94
2018-02-07T02:03:36.380Z,87.42
2018-02-07T02:04:36.332Z,87.42
2018-02-07T02:05:36.280Z,86.76
2018-02-07T02:06:36.228Z,87.13
2018-02-07T02:07:36.180Z,87.04
2018-02-07T02:08:36.130Z,87.32
2018-02-07T02:09:36.078Z,87.32
2018-02-07T02:10:36.029Z,87.51
2018-02-07T02:11:35.978Z,87.32
2018-02-07T02:12:35.926Z,87.51
2018-02-07T02:13:35.874Z,87.32
2018-02-07T02:14:35.828Z,87.23
2018-02-07T02:15:35.776Z,87.79
2018-02-07T02:16:35.724Z,87.61
2018-02-07T02:17:35.677Z,87.70
2018-02-07T02:18:35.621Z,87.98
2018-02-07T02:19:35.572Z,87.98
2018-02-07T02:20:35.525Z,87.98
2018-02-07T02:21:35.473Z,88.36
2018-02-07T02:22:35.420Z,87.98
2018-02-07T02:23:35.376Z,88.42
2018-02-07T02:24:35.329Z,88.08
2018-02-07T02:25:35.268Z,87.85
2018-02-07T02:26:35.223Z,87.98
2018-02-07T02:27:35.173Z,87.85
2018-02-07T02:28:35.116Z,87.79
2018-02-07T02:29:35.066Z,87.70
2018-02-07T02:30:35.027Z,87.70
2018-02-07T02:31:34.966Z,87.66
2018-02-07T02:32:34.915Z,87.75
2018-02-07T02:33:34.865Z,87.47
2018-02-07T02:34:34.813Z,87.75
2018-02-07T02:35:34.761Z,87.47
2018-02-07T02:36:34.714Z,87.66
2018-02-07T02:37:34.661Z,87.66
2018-02-07T02:38:34.613Z,88.23
2018-02-07T02:39:34.561Z,87.94
2018-02-07T02:40:34.509Z,88.42
2018-02-07T02:41:34.463Z,88.13
2018-02-07T02:42:34.508Z,88.04
2018-02-07T02:43:34.355Z,88.23
2018-02-07T02:44:34.313Z,88.13
2018-02-07T02:45:34.257Z,88.51
2018-02-07T02:46:34.204Z,88.51
2018-02-07T02:47:34.156Z,88.93
2018-02-07T02:48:34.105Z,88.42
2018-02-07T02:49:34.050Z,88.55
2018-02-07T02:50:34.002Z,88.42
2018-02-07T02:51:33.952Z,88.89
2018-02-07T02:52:33.906Z,88.74
2018-02-07T02:53:33.856Z,88.74
2018-02-07T02:54:33.804Z,88.55
2018-02-07T02:55:33.753Z,88.98
2018-02-07T02:56:33.698Z,88.65
2018-02-07T02:57:33.646Z,88.42
2018-02-07T02:58:33.600Z,88.65
2018-02-07T02:59:33.554Z,88.36
2018-02-07T03:00:33.496Z,88.27
2018-02-07T03:01:33.448Z,88.55
2018-02-07T03:02:33.395Z,88.17
2018-02-07T03:03:33.346Z,88.17
2018-02-07T03:04:33.295Z,88.46
2018-02-07T03:05:33.245Z,88.27
2018-02-07T03:06:33.191Z,87.98
2018-02-07T03:07:33.144Z,87.70
2018-02-07T03:08:33.093Z,87.61
2018-02-07T03:09:33.044Z,87.98
2018-02-07T03:10:32.995Z,88.08
2018-02-07T03:11:32.939Z,87.98
2018-02-07T03:12:32.888Z,88.17
2018-02-07T03:13:32.838Z,88.17
2018-02-07T03:14:32.789Z,87.61
2018-02-07T03:15:32.734Z,87.89
2018-02-07T03:16:32.688Z,88.08
2018-02-07T03:17:32.639Z,88.27
2018-02-07T03:18:32.642Z,88.46
2018-02-07T03:19:32.534Z,88.46
2018-02-07T03:20:32.486Z,88.27
2018-02-07T03:21:32.434Z,88.46
2018-02-07T03:22:32.382Z,88.08
2018-02-07T03:23:32.332Z,87.89
2018-02-07T03:24:32.285Z,87.89
2018-02-07T03:25:32.229Z,87.70
2018-02-07T03:26:32.180Z,87.89
2018-02-07T03:27:32.130Z,87.70
2018-02-07T03:28:32.080Z,87.70
2018-02-07T03:29:32.027Z,87.79
2018-02-07T03:30:31.984Z,87.98
2018-02-07T03:31:31.933Z,88.46
2018-02-07T03:32:31.882Z,88.55
2018-02-07T03:33:31.826Z,88.08
2018-02-07T03:34:31.778Z,88.17
2018-02-07T03:35:31.726Z,87.70
2018-02-07T03:36:31.679Z,87.79
2018-02-07T03:37:31.626Z,87.79
2018-02-07T03:38:31.578Z,87.98
2018-02-07T03:39:31.525Z,87.79
2018-02-07T03:40:31.473Z,87.51
2018-02-07T03:41:31.424Z,87.32
2018-02-07T03:42:31.379Z,87.42
2018-02-07T03:43:31.324Z,87.89
2018-02-07T03:44:31.279Z,87.89
2018-02-07T03:45:31.220Z,87.79
2018-02-07T03:46:31.171Z,87.79
2018-02-07T03:47:31.124Z,87.42
2018-02-07T03:48:31.070Z,87.70
2018-02-07T03:49:31.020Z,87.79
2018-02-07T03:50:30.969Z,87.89
2018-02-07T03:51:30.919Z,87.51
2018-02-07T03:52:30.873Z,87.70
2018-02-07T03:53:30.821Z,87.70
2018-02-07T03:54:30.766Z,87.98
2018-02-07T03:55:30.722Z,88.08
2018-02-07T03:56:30.668Z,88.17
2018-02-07T03:57:30.618Z,88.17
2018-02-07T03:58:30.564Z,87.70
2018-02-07T03:59:30.516Z,87.79
2018-02-07T04:00:30.466Z,87.32
2018-02-07T04:01:30.415Z,87.42
2018-02-07T04:02:30.364Z,88.08
2018-02-07T04:03:30.318Z,88.17
2018-02-07T04:04:30.266Z,87.98
2018-02-07T04:05:30.214Z,87.79
2018-02-07T04:06:30.161Z,87.70
2018-02-07T04:07:30.117Z,87.42
2018-02-07T04:08:30.067Z,87.32
2018-02-07T04:09:30.012Z,87.04
2018-02-07T04:10:29.967Z,87.23
2018-02-07T04:11:29.910Z,87.13
2018-02-07T04:12:29.860Z,87.51
2018-02-07T04:13:29.810Z,87.32
2018-02-07T04:14:29.760Z,87.42
2018-02-07T04:15:29.709Z,87.32
2018-02-07T04:16:29.658Z,87.32
2018-02-07T04:17:29.626Z,87.32
2018-02-07T04:18:29.560Z,87.32
2018-02-07T04:19:29.506Z,87.51
2018-02-07T04:20:29.458Z,87.51
2018-02-07T04:21:29.407Z,87.32
2018-02-07T04:22:29.356Z,87.51
2018-02-07T04:23:29.308Z,87.51
2018-02-07T04:24:29.256Z,87.51
2018-02-07T04:25:29.203Z,87.61
2018-02-07T04:26:29.180Z,87.32
2018-02-07T04:27:29.123Z,87.61
2018-02-07T04:28:29.052Z,87.32
2018-02-07T04:29:29.003Z,87.51
2018-02-07T04:30:28.955Z,87.42
2018-02-07T04:31:28.901Z,87.32
2018-02-07T04:32:28.855Z,87.51
2018-02-07T04:33:28.800Z,87.42
2018-02-07T04:34:28.751Z,87.51
2018-02-07T04:35:28.702Z,87.23
2018-02-07T04:36:28.651Z,87.70
2018-02-07T04:37:28.597Z,87.32
2018-02-07T04:38:28.548Z,87.42
2018-02-07T04:39:28.499Z,87.70
2018-02-07T04:40:28.445Z,87.79
2018-02-07T04:41:28.394Z,87.61
2018-02-07T04:42:28.344Z,87.42
2018-02-07T04:43:28.295Z,87.23
2018-02-07T04:44:28.244Z,87.32
2018-02-07T04:45:28.194Z,87.23
2018-02-07T04:46:28.144Z,87.42
2018-02-07T04:47:28.092Z,87.61
2018-02-07T04:48:28.043Z,87.79
2018-02-07T04:49:27.990Z,87.70
2018-02-07T04:50:27.939Z,87.98
2018-02-07T04:51:27.892Z,88.17
2018-02-07T04:52:27.839Z,87.42
2018-02-07T04:53:27.786Z,88.17
2018-02-07T04:54:27.742Z,88.65
2018-02-07T04:55:27.690Z,88.17
2018-02-07T04:56:27.636Z,88.65
2018-02-07T04:57:27.584Z,87.98
2018-02-07T04:58:27.535Z,87.98
2018-02-07T04:59:27.484Z,88.46
2018-02-07T05:00:27.435Z,88.17
2018-02-07T05:01:27.382Z,88.36
2018-02-07T05:02:27.332Z,88.36
2018-02-07T05:03:27.285Z,88.17
2018-02-07T05:04:27.232Z,88.27
2018-02-07T05:05:27.186Z,88.17
2018-02-07T05:06:27.134Z,87.89
2018-02-07T05:07:27.083Z,88.27
2018-02-07T05:08:27.035Z,88.17
2018-02-07T05:09:26.978Z,88.36
2018-02-07T05:10:26.939Z,88.27
2018-02-07T05:11:26.881Z,87.98
2018-02-07T05:12:26.831Z,87.98
2018-02-07T05:13:26.781Z,88.17
2018-02-07T05:14:26.736Z,88.46
2018-02-07T05:15:26.682Z,88.13
2018-02-07T05:16:26.626Z,88.17
2018-02-07T05:17:26.575Z,88.17
2018-02-07T05:18:26.527Z,88.13
2018-02-07T05:19:26.479Z,88.23
2018-02-07T05:20:26.426Z,88.23
2018-02-07T05:21:26.370Z,88.32
2018-02-07T05:22:26.324Z,88.13
2018-02-07T05:23:26.270Z,88.60
2018-02-07T05:24:26.223Z,88.51
2018-02-07T05:25:26.171Z,88.79
2018-02-07T05:26:26.121Z,88.32
2018-02-07T05:27:26.071Z,88.98
2018-02-07T05:28:26.019Z,88.60
2018-02-07T05:29:25.970Z,88.70
2018-02-07T05:30:25.916Z,88.60
2018-02-07T05:31:25.865Z,88.79
2018-02-07T05:32:25.815Z,89.26
2018-02-07T05:33:25.786Z,89.26
2018-02-07T05:34:25.714Z,89.73
2018-02-07T05:35:25.665Z,89.26
2018-02-07T05:36:25.622Z,89.64
2018-02-07T05:37:25.564Z,89.83
2018-02-07T05:38:25.511Z,89.64
2018-02-07T05:39:25.466Z,89.45
2018-02-07T05:40:25.423Z,89.83
2018-02-07T05:41:25.358Z,89.83
2018-02-07T05:42:25.307Z,90.02
2018-02-07T05:43:25.257Z,90.02
2018-02-07T05:44:25.204Z,90.40
2018-02-07T05:45:25.155Z,90.11
2018-02-07T05:46:25.105Z,90.11
2018-02-07T05:47:25.052Z,90.02
2018-02-07T05:48:25.001Z,90.30
2018-02-07T05:49:24.949Z,90.11
2018-02-07T05:50:24.901Z,90.11
2018-02-07T05:51:24.849Z,90.11
2018-02-07T05:52:24.796Z,90.11
2018-02-07T05:53:24.745Z,89.92
2018-02-07T05:54:24.694Z,90.40
2018-02-07T05:55:24.649Z,90.30
2018-02-07T05:56:24.592Z,90.87
2018-02-07T05:57:24.543Z,90.68
2018-02-07T05:58:24.492Z,90.77
2018-02-07T05:59:24.442Z,90.87
2018-02-07T06:00:24.392Z,90.30
2018-02-07T06:01:24.344Z,89.92
2018-02-07T06:02:24.289Z,90.11
2018-02-07T06:03:24.237Z,90.02
2018-02-07T06:04:24.187Z,90.11
2018-02-07T06:05:24.306Z,89.92
2018-02-07T06:06:24.086Z,90.68
2018-02-07T06:07:24.033Z,90.87
2018-02-07T06:08:23.984Z,90.77
2018-02-07T06:09:23.942Z,91.15
2018-02-07T06:10:23.900Z,90.87
2018-02-07T06:11:23.838Z,90.11
2018-02-07T06:12:23.783Z,90.49
2018-02-07T06:13:23.731Z,90.40
2018-02-07T06:14:23.679Z,90.40
2018-02-07T06:15:23.624Z,90.11
2018-02-07T06:16:23.576Z,90.40
2018-02-07T06:17:23.524Z,90.68
2018-02-07T06:18:23.474Z,90.21
2018-02-07T06:19:23.438Z,90.40
2018-02-07T06:20:23.381Z,90.59
2018-02-07T06:21:23.323Z,90.68
2018-02-07T06:22:23.268Z,90.40
2018-02-07T06:23:23.221Z,90.77
2018-02-07T06:24:23.167Z,90.87
2018-02-07T06:25:23.114Z,90.68
2018-02-07T06:26:23.066Z,89.92
2018-02-07T06:27:23.017Z,90.77
2018-02-07T06:28:22.965Z,89.92
2018-02-07T06:29:22.914Z,90.40
2018-02-07T06:30:22.900Z,90.21
2018-02-07T06:31:22.823Z,90.30
2018-02-07T06:32:22.758Z,90.68
2018-02-07T06:33:22.707Z,90.59
2018-02-07T06:34:22.657Z,90.59
2018-02-07T06:35:22.605Z,90.59
2018-02-07T06:36:22.553Z,90.59
2018-02-07T06:37:22.505Z,90.77
2018-02-07T06:38:22.453Z,90.77
2018-02-07T06:39:22.406Z,89.92
2018-02-07T06:40:22.350Z,90.21
2018-02-07T06:41:22.298Z,90.40
2018-02-07T06:42:22.249Z,90.40
2018-02-07T06:43:22.200Z,90.49
2018-02-07T06:44:22.145Z,90.49
2018-02-07T06:45:22.097Z,90.40
2018-02-07T06:46:22.046Z,90.49
2018-02-07T06:47:21.996Z,90.40
2018-02-07T06:48:21.951Z,90.77
2018-02-07T06:49:21.891Z,90.87
2018-02-07T06:50:21.838Z,90.49
2018-02-07T06:51:21.793Z,90.59
2018-02-07T06:52:21.735Z,90.87
2018-02-07T06:53:21.691Z,90.87
2018-02-07T06:54:21.634Z,90.87
2018-02-07T06:55:21.585Z,90.59
2018-02-07T06:56:21.536Z,90.49
2018-02-07T06:57:21.489Z,90.49
2018-02-07T06:58:21.431Z,90.59
2018-02-07T06:59:21.379Z,90.40
2018-02-07T07:01:21.275Z,90.59
2018-02-07T07:02:21.224Z,90.59
2018-02-07T07:05:21.077Z,90.77
2018-02-07T07:06:21.057Z,90.87
2018-02-07T07:07:20.968Z,90.49
2018-02-07T07:08:20.919Z,90.35
2018-02-07T07:09:20.866Z,90.54
2018-02-07T07:10:20.820Z,90.45
2018-02-07T07:11:20.765Z,90.35
2018-02-07T07:12:20.711Z,90.16
2018-02-07T07:13:20.661Z,90.26
2018-02-07T07:14:20.609Z,90.26
2018-02-07T07:15:20.558Z,90.45
2018-02-07T07:16:20.508Z,90.35
2018-02-07T07:17:20.461Z,90.45
2018-02-07T07:18:20.403Z,90.45
2018-02-07T07:19:20.354Z,90.45
2018-02-07T07:20:20.302Z,90.16
2018-02-07T07:21:20.250Z,90.35
2018-02-07T07:22:20.201Z,90.45
2018-02-07T07:23:20.148Z,90.16
2018-02-07T07:24:20.098Z,90.16
2018-02-07T07:25:20.047Z,90.92
2018-02-07T07:26:20.005Z,91.20
2018-02-07T07:27:19.944Z,90.92
2018-02-07T07:28:19.890Z,90.26
2018-02-07T07:29:19.839Z,90.35
2018-02-07T07:30:19.791Z,90.82
2018-02-07T07:31:19.739Z,90.45
2018-02-07T07:32:19.685Z,90.54
2018-02-07T07:33:19.633Z,91.11
2018-02-07T07:34:19.582Z,90.82
2018-02-07T07:35:19.537Z,91.01
2018-02-07T07:36:19.482Z,91.01
2018-02-07T07:37:19.427Z,90.64
2018-02-07T07:38:19.379Z,90.82
2018-02-07T07:39:19.326Z,90.64
2018-02-07T07:40:19.283Z,90.92
2018-02-07T07:41:19.223Z,90.73
2018-02-07T07:42:19.175Z,90.82
2018-02-07T07:43:19.164Z,90.92
2018-02-07T07:44:19.073Z,90.73
2018-02-07T07:45:19.020Z,90.82
2018-02-07T07:46:18.967Z,90.73
2018-02-07T07:47:18.917Z,91.01
2018-02-07T07:48:18.868Z,90.73
2018-02-07T07:49:18.810Z,90.82
2018-02-07T07:50:18.761Z,90.82
2018-02-07T07:51:18.710Z,90.64
2018-02-07T07:52:18.662Z,91.39
2018-02-07T07:53:18.605Z,91.01
2018-02-07T07:54:18.556Z,91.30
2018-02-07T07:55:18.503Z,91.20
2018-02-07T07:56:18.452Z,91.49
2018-02-07T07:57:18.400Z,91.39
2018-02-07T07:58:18.353Z,91.30
2018-02-07T07:59:18.300Z,91.30
2018-02-07T08:00:18.247Z,91.30
2018-02-07T08:01:18.197Z,91.39
2018-02-07T08:02:18.147Z,91.30
2018-02-07T08:03:18.097Z,91.49
2018-02-07T08:04:18.041Z,91.39
2018-02-07T08:05:17.989Z,91.39
2018-02-07T08:06:17.941Z,91.49
2018-02-07T08:07:17.889Z,91.39
2018-02-07T08:08:17.837Z,91.39
2018-02-07T08:09:17.784Z,91.58
2018-02-07T08:10:17.730Z,91.30
2018-02-07T08:11:17.681Z,91.49
2018-02-07T08:12:17.630Z,91.30
2018-02-07T08:13:17.577Z,91.49
2018-02-07T08:14:17.526Z,91.49
2018-02-07T08:15:17.474Z,91.30
2018-02-07T08:16:17.423Z,91.49
2018-02-07T08:17:17.372Z,91.39
2018-02-07T08:18:17.318Z,91.49
2018-02-07T08:19:17.271Z,91.39
2018-02-07T08:20:17.222Z,91.49
2018-02-07T08:21:17.168Z,91.30
2018-02-07T08:22:17.120Z,91.49
2018-02-07T08:23:17.063Z,91.20
2018-02-07T08:24:17.017Z,91.39
2018-02-07T08:25:16.962Z,91.39
2018-02-07T08:26:16.910Z,91.30
2018-02-07T08:27:16.856Z,91.58
2018-02-07T08:28:16.810Z,91.58
2018-02-07T08:29:16.753Z,91.30
2018-02-07T08:30:16.703Z,90.92
2018-02-07T08:31:16.656Z,90.64
2018-02-07T08:32:16.603Z,90.54
2018-02-07T08:33:16.572Z,91.20
2018-02-07T08:34:16.503Z,91.01
2018-02-07T08:35:16.445Z,91.11
2018-02-07T08:36:16.398Z,90.59
2018-02-07T08:37:16.344Z,90.96
2018-02-07T08:38:16.294Z,91.30
2018-02-07T08:39:16.240Z,91.11
2018-02-07T08:40:16.193Z,90.82
2018-02-07T08:41:16.136Z,90.96
2018-02-07T08:42:16.090Z,90.82
2018-02-07T08:43:16.039Z,90.87
2018-02-07T08:44:15.990Z,90.77
2018-02-07T08:45:15.934Z,91.06
2018-02-07T08:46:15.883Z,90.11
2018-02-07T08:47:15.830Z,90.40
2018-02-07T08:48:15.783Z,89.92
2018-02-07T08:49:15.729Z,90.49
2018-02-07T08:50:15.680Z,90.21
2018-02-07T08:51:15.626Z,90.11
2018-02-07T08:52:15.579Z,90.40
2018-02-07T08:53:15.524Z,90.02
2018-02-07T08:54:15.474Z,90.21
2018-02-07T08:55:15.426Z,90.11
2018-02-07T08:56:15.371Z,90.40
2018-02-07T08:57:15.319Z,89.83
2018-02-07T08:58:15.273Z,89.07
2018-02-07T08:59:15.216Z,88.70
2018-02-07T09:00:15.171Z,88.79
2018-02-07T09:01:15.116Z,88.60
2018-02-07T09:02:15.065Z,88.51
2018-02-07T09:03:15.064Z,88.60
2018-02-07T09:04:14.966Z,88.23
2018-02-07T09:05:14.915Z,88.60
2018-02-07T09:06:14.859Z,87.75
2018-02-07T09:07:14.856Z,88.13
2018-02-07T09:08:14.761Z,88.04
2018-02-07T09:09:14.708Z,88.32
2018-02-07T09:10:14.656Z,87.85
2018-02-07T09:11:14.605Z,87.66
2018-02-07T09:12:14.558Z,87.47
2018-02-07T09:13:14.502Z,87.28
2018-02-07T09:14:14.455Z,87.85
2018-02-07T09:15:14.404Z,88.17
2018-02-07T09:16:14.351Z,87.51
2018-02-07T09:17:14.302Z,87.13
2018-02-07T09:18:14.249Z,86.85
2018-02-07T09:19:14.201Z,86.94
2018-02-07T09:20:14.152Z,86.47
2018-02-07T09:21:14.099Z,86.85
2018-02-07T09:22:14.048Z,85.91
2018-02-07T09:23:13.998Z,86.10
2018-02-07T09:24:13.948Z,86.38
2018-02-07T09:25:13.893Z,86.19
2018-02-07T09:26:13.846Z,85.91
2018-02-07T09:27:13.796Z,86.85
2018-02-07T09:28:13.743Z,86.19
2018-02-07T09:29:13.696Z,85.24
2018-02-07T09:30:13.643Z,85.34
2018-02-07T09:31:13.590Z,86.19
2018-02-07T09:32:13.540Z,86.19
2018-02-07T09:33:13.492Z,85.81
2018-02-07T09:34:13.441Z,85.24
2018-02-07T09:35:13.390Z,84.96
2018-02-07T09:36:13.339Z,84.96
2018-02-07T09:37:13.291Z,84.58
2018-02-07T09:38:13.243Z,84.68
2018-02-07T09:39:13.190Z,84.58
2018-02-07T09:40:13.138Z,84.58
2018-02-07T09:41:13.088Z,84.58
2018-02-07T09:42:13.034Z,83.92
2018-02-07T09:43:12.985Z,83.64
2018-02-07T09:44:12.935Z,84.58
2018-02-07T09:45:12.887Z,84.49
2018-02-07T09:46:12.834Z,84.01
2018-02-07T09:47:12.784Z,83.59
2018-02-07T09:48:12.737Z,83.68
2018-02-07T09:49:12.684Z,83.30
2018-02-07T09:50:12.635Z,83.49
2018-02-07T09:51:12.584Z,82.54
2018-02-07T09:52:12.534Z,83.11
2018-02-07T09:53:12.485Z,83.21
2018-02-07T09:54:12.435Z,82.83
2018-02-07T09:55:12.384Z,82.83
2018-02-07T09:56:12.332Z,82.35
2018-02-07T09:57:12.326Z,81.88
2018-02-07T09:58:12.235Z,82.26
2018-02-07T09:59:12.183Z,82.17
2018-02-07T10:00:12.135Z,82.17
2018-02-07T10:01:12.085Z,82.40
2018-02-07T10:02:12.037Z,82.02
2018-02-07T10:03:11.991Z,81.07
2018-02-07T10:04:11.934Z,80.60
2018-02-07T10:05:11.889Z,81.07
2018-02-07T10:06:11.835Z,79.94
2018-02-07T10:07:11.786Z,79.09
2018-02-07T10:08:11.737Z,78.90
2018-02-07T10:09:11.685Z,79.18
2018-02-07T10:10:11.638Z,78.61
2018-02-07T10:11:11.591Z,78.80
2018-02-07T10:12:11.541Z,77.86
2018-02-07T10:13:11.490Z,78.14
2018-02-07T10:14:11.442Z,77.95
2018-02-07T10:15:11.392Z,77.23
2018-02-07T10:16:11.342Z,77.23
2018-02-07T10:17:11.294Z,77.33
2018-02-07T10:18:11.245Z,77.61
2018-02-07T10:19:11.199Z,77.14
2018-02-07T10:20:11.147Z,76.57
2018-02-07T10:21:11.097Z,76.67
2018-02-07T10:22:11.047Z,76.67
2018-02-07T10:23:10.999Z,76.38
2018-02-07T10:24:10.951Z,76.48
2018-02-07T10:25:10.901Z,76.95
2018-02-07T10:26:10.855Z,77.04
2018-02-07T10:27:10.802Z,76.48
2018-02-07T10:28:10.756Z,76.10
2018-02-07T10:29:10.708Z,75.81
2018-02-07T10:30:10.659Z,75.24
2018-02-07T10:31:10.607Z,75.24
2018-02-07T10:32:10.559Z,75.24
2018-02-07T10:33:10.513Z,75.53
2018-02-07T10:34:10.462Z,75.15
2018-02-07T10:35:10.410Z,75.53
2018-02-07T10:36:10.362Z,74.96
2018-02-07T10:37:10.315Z,74.49
2018-02-07T10:38:10.264Z,74.58
2018-02-07T10:39:10.217Z,74.58
2018-02-07T10:40:10.167Z,75.43
2018-02-07T10:41:10.117Z,75.24
2018-02-07T10:42:10.070Z,74.58
2018-02-07T10:43:10.029Z,74.40
2018-02-07T10:44:09.973Z,74.02
2018-02-07T10:45:09.925Z,74.68
2018-02-07T10:46:09.877Z,74.58
2018-02-07T10:47:09.827Z,74.30
2018-02-07T10:48:09.782Z,74.30
2018-02-07T10:49:09.730Z,74.30
2018-02-07T10:50:09.681Z,74.30
2018-02-07T10:51:09.635Z,74.58
2018-02-07T10:52:09.586Z,74.02
2018-02-07T10:53:09.534Z,74.02
2018-02-07T10:54:09.490Z,73.73
2018-02-07T10:55:09.442Z,73.64
2018-02-07T10:56:09.393Z,74.02
2018-02-07T10:57:09.343Z,74.77
2018-02-07T10:58:09.292Z,75.34
2018-02-07T10:59:09.244Z,74.30
2018-02-07T11:00:09.197Z,74.11
2018-02-07T11:01:09.148Z,73.64
2018-02-07T11:02:09.098Z,73.35
2018-02-07T11:03:09.049Z,73.35
2018-02-07T11:04:09.005Z,73.64
2018-02-07T11:05:08.952Z,73.35
2018-02-07T11:06:08.902Z,73.73
2018-02-07T11:07:08.886Z,74.40
2018-02-07T11:08:08.811Z,73.54
2018-02-07T11:09:08.757Z,74.30
2018-02-07T11:10:08.711Z,73.16
2018-02-07T11:11:08.665Z,73.73
2018-02-07T11:12:08.615Z,74.21
2018-02-07T11:13:08.564Z,72.60
2018-02-07T11:14:08.515Z,73.07
2018-02-07T11:15:08.468Z,72.22
2018-02-07T11:16:08.424Z,72.03
2018-02-07T11:17:08.369Z,72.03
2018-02-07T11:18:08.322Z,71.84
2018-02-07T11:19:08.278Z,71.84
2018-02-07T11:20:08.229Z,72.22
2018-02-07T11:21:08.175Z,72.78
2018-02-07T11:22:08.130Z,72.22
2018-02-07T11:23:08.083Z,72.50
2018-02-07T11:24:08.036Z,72.78
2018-02-07T11:25:07.984Z,72.69
2018-02-07T11:26:07.933Z,72.31
2018-02-07T11:27:07.890Z,71.84
2018-02-07T11:28:07.835Z,71.84
2018-02-07T11:29:07.786Z,71.88
2018-02-07T11:30:07.744Z,71.21
2018-02-07T11:31:07.691Z,71.69
2018-02-07T11:32:07.644Z,71.97
2018-02-07T11:33:07.593Z,71.78
2018-02-07T11:34:07.547Z,71.69
2018-02-07T11:35:07.496Z,71.40
2018-02-07T11:36:07.453Z,71.78
2018-02-07T11:37:07.408Z,71.40
2018-02-07T11:38:07.349Z,71.69
2018-02-07T11:39:07.303Z,71.97
2018-02-07T11:40:07.257Z,71.40
2018-02-07T11:41:07.205Z,72.25
2018-02-07T11:42:07.165Z,71.88
2018-02-07T11:43:07.108Z,70.83
2018-02-07T11:44:07.059Z,70.45
2018-02-07T11:45:07.011Z,70.93
2018-02-07T11:46:06.962Z,71.21
2018-02-07T11:47:06.921Z,71.97
2018-02-07T11:48:06.869Z,71.78
2018-02-07T11:49:06.821Z,70.64
2018-02-07T11:50:06.774Z,70.74
2018-02-07T11:51:06.720Z,71.40
2018-02-07T11:52:06.672Z,70.93
2018-02-07T11:53:06.628Z,70.07
2018-02-07T11:54:06.575Z,69.60
2018-02-07T11:55:06.533Z,69.03
2018-02-07T11:56:06.481Z,70.36
2018-02-07T11:57:06.430Z,71.31
2018-02-07T11:58:06.386Z,71.78
2018-02-07T11:59:06.334Z,70.93
2018-02-07T12:00:06.286Z,69.89
2018-02-07T12:01:06.238Z,69.13
2018-02-07T12:02:06.190Z,68.18
2018-02-07T12:03:06.142Z,68.08
2018-02-07T12:04:06.093Z,68.84
2018-02-07T12:05:06.048Z,69.17
2018-02-07T12:06:05.994Z,70.20
2018-02-07T12:07:05.954Z,69.07
2018-02-07T12:08:05.900Z,68.21
2018-02-07T12:09:05.851Z,67.83
2018-02-07T12:10:05.805Z,67.93
2018-02-07T12:11:05.755Z,68.02
2018-02-07T12:12:05.709Z,67.83
2018-02-07T12:13:05.663Z,67.74
2018-02-07T12:14:05.613Z,68.40
2018-02-07T12:15:05.565Z,68.50
2018-02-07T12:16:05.517Z,67.27
2018-02-07T12:17:05.476Z,67.83
2018-02-07T12:18:05.421Z,69.35
2018-02-07T12:19:05.373Z,68.02
2018-02-07T12:20:05.328Z,67.36
2018-02-07T12:21:05.276Z,66.99
2018-02-07T12:22:05.235Z,66.22
2018-02-07T12:23:05.183Z,66.32
2018-02-07T12:24:05.146Z,65.84
2018-02-07T12:25:05.084Z,65.84
2018-02-07T12:26:05.037Z,65.59
2018-02-07T12:27:04.991Z,65.50
2018-02-07T12:28:04.944Z,66.74
2018-02-07T12:29:04.895Z,66.16
2018-02-07T12:30:04.851Z,65.69
2018-02-07T12:31:04.827Z,64.84
2018-02-07T12:32:04.757Z,63.98
2018-02-07T12:33:04.706Z,63.89
2018-02-07T12:34:04.659Z,63.70
2018-02-07T12:35:04.612Z,63.23
2018-02-07T12:36:04.565Z,63.32
2018-02-07T12:37:04.517Z,63.42
2018-02-07T12:38:04.476Z,63.79
2018-02-07T12:39:04.422Z,63.89
2018-02-07T12:40:04.377Z,63.64
2018-02-07T12:41:04.327Z,62.97
2018-02-07T12:42:04.284Z,62.31
2018-02-07T12:43:04.233Z,62.12
2018-02-07T12:44:04.185Z,61.65
2018-02-07T12:45:04.146Z,62.59
2018-02-07T12:46:04.095Z,62.88
2018-02-07T12:47:04.055Z,63.07
2018-02-07T12:48:03.999Z,62.31
2018-02-07T12:49:03.958Z,61.27
2018-02-07T12:50:03.912Z,61.27
2018-02-07T12:51:03.857Z,61.46
2018-02-07T12:52:03.810Z,60.89
2018-02-07T12:53:03.767Z,60.89
2018-02-07T12:54:03.719Z,60.79
2018-02-07T12:55:03.670Z,60.70